Time;durP1;ratioP1;P1;durP2;ratioP2;P2;SDS_P1;SDS_P2;PMS_P1;PMS_P2;Temp;Humidity;BMP_temperature;BMP_pressure;BME280_temperature;BME280_humidity;BME280_pressure;Samples;Min_cycle;Max_cycle;Signal;HPM_P1;HPM_P2
2023/04/30 00:00:18;;;;;;;1.73;1.63;;;;;;;12.20;100.00;95588.72;5049797;28;20100;-75
2023/04/30 00:02:43;;;;;;;2.78;1.42;;;;;;;12.21;100.00;95593.81;5050764;28;20035;-76
2023/04/30 00:05:09;;;;;;;1.70;1.60;;;;;;;12.26;100.00;95594.16;5048639;28;20271;-76
2023/04/30 00:07:34;;;;;;;1.67;1.58;;;;;;;12.31;100.00;95588.44;5047225;28;20493;-77
2023/04/30 00:10:00;;;;;;;1.80;1.50;;;;;;;12.21;100.00;95580.63;5048488;28;20488;-76
2023/04/30 00:12:25;;;;;;;1.70;1.60;;;;;;;12.14;100.00;95580.41;5047119;28;20029;-76
2023/04/30 00:14:51;;;;;;;2.05;1.70;;;;;;;12.06;100.00;95576.91;5050829;28;20021;-76
2023/04/30 00:17:16;;;;;;;1.63;1.50;;;;;;;12.02;100.00;95569.28;5046529;28;20141;-75
2023/04/30 00:19:41;;;;;;;1.88;1.50;;;;;;;11.96;100.00;95561.94;5050452;28;20036;-75
2023/04/30 00:22:07;;;;;;;1.90;1.42;;;;;;;11.96;100.00;95564.59;5053043;28;20025;-76
2023/04/30 00:24:33;;;;;;;3.53;1.77;;;;;;;11.94;100.00;95558.63;5051858;28;20066;-76
2023/04/30 00:26:58;;;;;;;1.58;1.50;;;;;;;11.98;100.00;95557.34;5050670;28;20033;-75
2023/04/30 00:29:24;;;;;;;3.38;2.05;;;;;;;12.04;100.00;95548.84;5064183;28;20397;-75
2023/04/30 00:31:49;;;;;;;1.90;1.80;;;;;;;12.09;100.00;95551.03;5051108;28;20508;-75
2023/04/30 00:34:15;;;;;;;3.58;1.67;;;;;;;12.09;100.00;95547.56;5048568;28;20473;-75
2023/04/30 00:36:40;;;;;;;1.80;1.70;;;;;;;12.02;100.00;95548.16;5051981;28;20393;-75
2023/04/30 00:39:06;;;;;;;3.45;1.55;;;;;;;11.99;100.00;95548.44;5049815;28;20042;-75
2023/04/30 00:41:33;;;;;;;1.67;1.58;;;;;;;11.98;100.00;95549.44;5053099;28;20021;-74
2023/04/30 00:44:01;;;;;;;1.63;1.50;;;;;;;12.00;100.00;95549.28;5049075;28;20035;-75
2023/04/30 00:46:26;;;;;;;2.80;1.70;;;;;;;12.02;100.00;95550.00;5050964;28;20021;-74
2023/04/30 00:48:51;;;;;;;1.90;1.77;;;;;;;12.05;100.00;95557.59;5046598;28;20084;-75
2023/04/30 00:51:17;;;;;;;1.85;1.75;;;;;;;12.08;100.00;95546.72;5052183;28;20021;-75
2023/04/30 00:53:45;;;;;;;2.47;1.70;;;;;;;12.15;100.00;95549.56;5045787;28;20017;-75
2023/04/30 00:56:15;;;;;;;3.22;2.00;;;;;;;12.18;100.00;95552.75;5048322;28;20021;-74
2023/04/30 00:58:40;;;;;;;1.85;1.65;;;;;;;12.17;100.00;95544.97;5052863;28;20074;-74
2023/04/30 01:01:06;;;;;;;5.30;1.52;;;;;;;12.16;100.00;95551.22;5050115;28;20030;-74
2023/04/30 01:03:31;;;;;;;1.60;1.50;;;;;;;12.22;100.00;95542.69;5064893;28;20033;-74
2023/04/30 01:05:56;;;;;;;3.63;1.60;;;;;;;12.19;100.00;95543.00;5051044;28;20033;-74
2023/04/30 01:08:22;;;;;;;1.80;1.70;;;;;;;12.20;100.00;95543.84;5059974;28;20031;-74
2023/04/30 01:10:55;;;;;;;2.70;1.50;;;;;;;12.18;100.00;95536.06;5050788;28;20012;-74
2023/04/30 01:13:30;;;;;;;3.53;1.75;;;;;;;12.18;100.00;95538.69;5049198;28;20035;-74
2023/04/30 01:16:03;;;;;;;3.50;1.50;;;;;;;12.12;100.00;95537.50;5044967;28;20354;-74
2023/04/30 01:18:36;;;;;;;2.92;1.50;;;;;;;12.11;100.00;95538.50;5050548;28;20621;-74
2023/04/30 01:21:04;;;;;;;3.33;1.50;;;;;;;12.11;100.00;95537.69;5054072;28;20025;-74
2023/04/30 01:24:01;;;;;;;1.92;1.83;;;;;;;12.15;100.00;95544.28;5051538;28;20049;-74
2023/04/30 01:26:29;;;;;;;3.15;1.58;;;;;;;12.07;100.00;95537.16;5051003;28;20037;-73
2023/04/30 01:28:57;;;;;;;3.83;1.73;;;;;;;12.12;100.00;95541.97;5049575;28;20017;-74
2023/04/30 01:31:23;;;;;;;1.63;1.40;;;;;;;12.14;100.00;95537.38;5048927;28;20025;-74
2023/04/30 01:33:48;;;;;;;2.58;1.73;;;;;;;12.11;100.00;95535.03;5048632;28;20020;-74
2023/04/30 01:36:41;;;;;;;5.35;1.50;;;;;;;12.12;100.00;95544.63;5053791;28;20056;-73
2023/04/30 01:39:26;;;;;;;2.05;1.38;;;;;;;12.10;100.00;95536.03;5053955;28;20049;-74
2023/04/30 01:42:11;;;;;;;2.40;1.47;;;;;;;12.10;100.00;95539.47;5045805;28;20279;-74
2023/04/30 01:44:37;;;;;;;;;;;;;;;12.12;100.00;95544.63;5051596;28;20052;-74
2023/04/30 01:47:20;;;;;;;1.47;1.47;;;;;;;12.13;100.00;95543.63;5047042;28;19944;-74
2023/04/30 01:49:45;;;;;;;1.60;1.50;;;;;;;12.14;100.00;95537.38;5049360;28;20329;-74
2023/04/30 01:52:17;;;;;;;2.10;1.60;;;;;;;12.15;100.00;95545.09;5053422;28;20045;-74
2023/04/30 01:54:56;;;;;;;2.28;1.90;;;;;;;12.17;100.00;95551.09;5047498;28;20115;-74
2023/04/30 01:57:36;;;;;;;2.13;1.92;;;;;;;12.15;100.00;95539.84;5045412;28;20025;-74
2023/04/30 02:00:03;;;;;;;2.80;1.88;;;;;;;12.18;100.00;95542.19;5050763;28;20067;-74
2023/04/30 02:02:29;;;;;;;4.82;1.70;;;;;;;12.15;100.00;95539.84;5050999;28;20025;-74
2023/04/30 02:04:54;;;;;;;10.63;2.10;;;;;;;12.13;100.00;95538.34;5054561;28;20029;-74
2023/04/30 02:07:36;;;;;;;1.52;1.50;;;;;;;12.09;100.00;95535.19;5054985;28;20025;-74
2023/04/30 02:10:03;;;;;;;2.10;1.40;;;;;;;12.08;100.00;95543.28;5048733;28;20052;-74
2023/04/30 02:12:29;;;;;;;3.60;1.88;;;;;;;12.09;100.00;95543.09;5051287;28;20040;-74
2023/04/30 02:14:54;;;;;;;1.55;1.50;;;;;;;12.10;100.00;95538.66;5050938;28;20037;-75
2023/04/30 02:17:20;;;;;;;1.70;1.60;;;;;;;12.10;100.00;95541.31;5053042;28;20036;-74
2023/04/30 02:19:45;;;;;;;4.95;2.13;;;;;;;12.08;100.00;95538.00;5050225;28;20029;-75
2023/04/30 02:22:10;;;;;;;2.42;1.65;;;;;;;12.08;100.00;95541.44;5047859;28;20178;-74
2023/04/30 02:24:36;;;;;;;2.20;1.88;;;;;;;12.11;100.00;95540.31;5052762;28;20409;-74
2023/04/30 02:27:01;;;;;;;4.45;1.85;;;;;;;12.12;100.00;95541.97;5051696;28;20029;-75
2023/04/30 02:29:27;;;;;;;4.68;1.70;;;;;;;12.11;100.00;95535.03;5055497;28;20031;-74
2023/04/30 02:31:52;;;;;;;2.33;1.70;;;;;;;12.08;100.00;95532.72;5052573;28;20029;-74
2023/04/30 02:34:17;;;;;;;2.00;1.50;;;;;;;12.03;100.00;95531.34;5050343;28;20389;-73
2023/04/30 02:36:43;;;;;;;2.70;1.55;;;;;;;12.07;100.00;95533.69;5050885;28;20399;-74
2023/04/30 02:39:08;;;;;;;1.83;1.63;;;;;;;12.06;100.00;95527.59;5052194;28;20512;-74
2023/04/30 02:41:33;;;;;;;2.70;1.60;;;;;;;12.02;100.00;95526.25;5053779;28;20093;-74
2023/04/30 02:43:59;;;;;;;1.60;1.50;;;;;;;12.02;100.00;95527.06;5050327;28;20025;-74
2023/04/30 02:46:24;;;;;;;3.85;1.65;;;;;;;12.05;100.00;95531.22;5053116;28;20025;-74
2023/04/30 02:48:50;;;;;;;1.63;1.52;;;;;;;12.05;100.00;95531.22;5048390;28;20029;-74
2023/04/30 02:51:15;;;;;;;1.67;1.42;;;;;;;12.02;100.00;95524.41;5064094;28;20021;-74
2023/04/30 02:53:41;;;;;;;1.83;1.73;;;;;;;12.00;100.00;95526.34;5050162;28;20389;-75
2023/04/30 02:56:06;;;;;;;4.78;1.60;;;;;;;12.05;100.00;95520.66;5055373;28;20088;-74
2023/04/30 02:58:32;;;;;;;2.53;1.80;;;;;;;12.14;100.00;95513.63;5050050;28;20029;-74
2023/04/30 03:00:58;;;;;;;2.97;1.77;;;;;;;12.11;100.00;95517.38;5068050;28;20108;-74
2023/04/30 03:03:23;;;;;;;1.77;1.67;;;;;;;12.12;100.00;95512.94;5051346;28;20576;-73
2023/04/30 03:05:49;;;;;;;3.55;1.85;;;;;;;12.13;100.00;95520.69;5053363;28;20599;-74
2023/04/30 03:08:14;;;;;;;1.73;1.63;;;;;;;12.13;100.00;95522.53;5050516;28;20028;-74
2023/04/30 03:10:40;;;;;;;3.95;1.95;;;;;;;12.12;100.00;95524.31;5049615;28;20131;-74
2023/04/30 03:13:05;;;;;;;2.88;1.60;;;;;;;12.15;100.00;95515.28;5052483;28;20043;-74
2023/04/30 03:15:33;;;;;;;2.58;2.20;;;;;;;12.14;100.00;95517.06;5046849;28;20029;-74
2023/04/30 03:17:59;;;;;;;11.73;2.30;;;;;;;12.13;100.00;95525.97;5051789;28;20064;-74
2023/04/30 03:20:24;;;;;;;2.83;2.60;;;;;;;12.17;100.00;95522.06;5052516;28;20477;-74
2023/04/30 03:22:50;;;;;;;3.55;2.92;;;;;;;12.22;100.00;95523.41;5055115;28;20056;-73
2023/04/30 03:25:15;;;;;;;3.03;2.72;;;;;;;12.18;100.00;95521.06;5049312;28;20493;-73
2023/04/30 03:27:41;;;;;;;3.05;2.70;;;;;;;12.23;100.00;95520.59;5052120;28;20050;-73
2023/04/30 03:30:07;;;;;;;3.00;2.80;;;;;;;12.22;100.00;95526.03;5049454;28;20032;-73
2023/04/30 03:32:32;;;;;;;2.78;2.58;;;;;;;12.23;100.00;95517.13;5052242;28;20081;-73
2023/04/30 03:34:57;;;;;;;7.30;2.60;;;;;;;12.22;100.00;95520.75;5048864;28;20028;-73
2023/04/30 03:37:23;;;;;;;2.90;2.70;;;;;;;12.28;100.00;95514.84;5051428;28;20035;-73
2023/04/30 03:39:48;;;;;;;3.50;3.22;;;;;;;12.23;100.00;95525.84;5053684;28;20052;-74
2023/04/30 03:42:14;;;;;;;2.92;2.75;;;;;;;12.24;100.00;95524.06;5050413;28;20051;-73
2023/04/30 03:44:39;;;;;;;2.80;2.60;;;;;;;12.21;100.00;95522.56;5052521;28;20045;-73
2023/04/30 03:47:04;;;;;;;3.25;2.97;;;;;;;12.26;100.00;95525.53;5050275;28;20024;-73
2023/04/30 03:49:30;;;;;;;4.60;3.70;;;;;;;12.22;100.00;95526.03;5049888;28;20059;-73
2023/04/30 03:51:55;;;;;;;3.38;3.17;;;;;;;12.27;100.00;95519.31;5053274;28;20032;-73
2023/04/30 03:54:21;;;;;;;4.13;3.38;;;;;;;12.24;100.00;95522.22;5050191;28;20386;-72
2023/04/30 03:56:46;;;;;;;4.40;3.78;;;;;;;12.23;100.00;95522.41;5050162;28;20032;-72
2023/04/30 03:59:12;;;;;;;3.30;3.10;;;;;;;12.21;100.00;95525.19;5052597;28;20055;-72
2023/04/30 04:01:37;;;;;;;3.30;3.00;;;;;;;12.22;100.00;95520.75;5047187;28;20111;-72
2023/04/30 04:04:03;;;;;;;5.03;3.15;;;;;;;12.24;100.00;95529.34;5049249;28;20120;-72
2023/04/30 04:06:28;;;;;;;4.25;3.38;;;;;;;12.20;100.00;95523.53;5051613;28;20505;-71
2023/04/30 04:08:53;;;;;;;3.25;3.05;;;;;;;12.18;100.00;95533.44;5050183;28;20132;-72
2023/04/30 04:11:19;;;;;;;2.97;2.78;;;;;;;12.11;100.00;95530.56;5052918;28;20053;-72
2023/04/30 04:13:45;;;;;;;6.80;3.70;;;;;;;12.07;100.00;95526.59;5049637;28;20477;-72
2023/04/30 04:16:10;;;;;;;5.40;2.95;;;;;;;12.06;100.00;95532.84;5048819;28;20021;-72
2023/04/30 04:18:36;;;;;;;4.13;3.10;;;;;;;12.11;100.00;95540.31;5051597;28;20062;-72
2023/04/30 04:21:01;;;;;;;4.00;3.65;;;;;;;12.04;100.00;95530.38;5048407;28;20036;-72
2023/04/30 04:23:26;;;;;;;5.20;4.03;;;;;;;11.99;100.00;95529.97;5047275;28;20683;-72
2023/04/30 04:25:52;;;;;;;4.95;4.55;;;;;;;12.25;100.00;95531.00;5051466;28;20029;-71
2023/04/30 04:28:18;;;;;;;5.53;3.88;;;;;;;12.18;100.00;95536.91;5050350;28;20033;-72
2023/04/30 04:30:44;;;;;;;4.63;4.22;;;;;;;12.11;100.00;95537.69;5052898;28;20024;-72
2023/04/30 04:33:10;;;;;;;6.00;4.28;;;;;;;12.00;100.00;95539.53;5050433;28;20115;-72
2023/04/30 04:35:36;;;;;;;5.60;5.15;;;;;;;12.30;100.00;95541.91;5045416;28;20056;-72
2023/04/30 04:38:01;;;;;;;4.85;4.55;;;;;;;12.12;100.00;95539.34;5048977;28;20518;-72
2023/04/30 04:40:27;;;;;;;4.10;3.80;;;;;;;11.97;100.00;95542.50;5050681;28;20051;-72
2023/04/30 04:42:53;;;;;;;4.65;4.30;;;;;;;11.95;100.00;95547.09;5049862;28;20112;-72
2023/04/30 04:45:22;;;;;;;4.18;3.80;;;;;;;11.97;100.00;95546.97;5054141;28;21721;-72
2023/04/30 04:47:48;;;;;;;4.70;4.40;;;;;;;11.90;100.00;95549.38;5048677;28;20024;-72
2023/04/30 04:50:13;;;;;;;5.57;4.25;;;;;;;11.88;100.00;95544.25;5049023;28;20037;-72
2023/04/30 04:52:39;;;;;;;4.57;4.20;;;;;;;11.83;100.00;95549.16;5052600;28;20530;-72
2023/04/30 04:55:06;;;;;;;4.55;4.15;;;;;;;11.79;100.00;95546.97;5046031;28;20058;-71
2023/04/30 04:57:31;;;;;;;4.47;4.10;;;;;;;11.80;100.00;95554.75;5050732;28;20033;-72
2023/04/30 04:59:57;;;;;;;4.57;4.28;;;;;;;11.88;100.00;95559.25;5050906;28;20515;-72
2023/04/30 05:02:22;;;;;;;4.72;4.28;;;;;;;11.82;100.00;95562.50;5046234;28;20128;-72
2023/04/30 05:04:49;;;;;;;4.40;4.10;;;;;;;11.81;100.00;95558.19;5048085;28;20104;-72
2023/04/30 05:07:18;;;;;;;4.68;4.28;;;;;;;11.85;100.00;95565.66;5051065;28;20104;-72
2023/04/30 05:09:45;;;;;;;6.32;4.30;;;;;;;11.77;100.00;95554.22;5045910;28;20056;-72
2023/04/30 05:12:11;;;;;;;8.68;4.03;;;;;;;11.80;100.00;95556.53;5046447;28;20047;-71
2023/04/30 05:14:37;;;;;;;4.93;4.47;;;;;;;11.72;100.00;95555.50;5045858;28;20022;-72
2023/04/30 05:17:02;;;;;;;5.25;4.55;;;;;;;11.76;100.00;95558.69;5049238;28;20101;-72
2023/04/30 05:19:27;;;;;;;4.93;4.53;;;;;;;11.73;100.00;95558.97;5047892;28;20522;-72
2023/04/30 05:21:53;;;;;;;5.00;4.50;;;;;;;11.75;100.00;95563.09;5048600;28;20029;-72
2023/04/30 05:24:18;;;;;;;4.47;4.10;;;;;;;11.73;100.00;95556.34;5051308;28;20452;-72
2023/04/30 05:26:44;;;;;;;4.60;4.25;;;;;;;11.70;100.00;95557.47;5048575;28;20478;-72
2023/04/30 05:29:10;;;;;;;4.75;4.35;;;;;;;11.93;100.00;95562.25;5046934;28;20032;-72
2023/04/30 05:31:36;;;;;;;4.97;4.25;;;;;;;11.78;100.00;95553.22;5050831;28;20086;-72
2023/04/30 05:34:02;;;;;;;5.32;4.93;;;;;;;11.75;100.00;95551.75;5052387;28;20025;-72
2023/04/30 05:36:28;;;;;;;5.72;4.78;;;;;;;11.70;100.00;95557.47;5053852;28;20044;-72
2023/04/30 05:38:53;;;;;;;4.57;4.28;;;;;;;11.62;100.00;95557.41;5053338;28;20417;-71
2023/04/30 05:41:20;;;;;;;4.68;4.38;;;;;;;11.61;100.00;95553.13;5053057;28;20103;-72
2023/04/30 05:43:45;;;;;;;5.35;4.05;;;;;;;11.79;100.00;95562.78;5052867;28;20098;-71
2023/04/30 05:46:11;;;;;;;5.70;5.28;;;;;;;11.65;100.00;95551.81;5052466;28;20184;-72
2023/04/30 05:48:37;;;;;;;4.90;4.55;;;;;;;11.62;100.00;95560.03;5067453;28;20032;-72
2023/04/30 05:51:04;;;;;;;5.15;4.75;;;;;;;11.69;100.00;95562.88;5055148;28;20481;-72
2023/04/30 05:53:29;;;;;;;5.78;4.97;;;;;;;11.87;100.00;95568.16;5064984;28;20150;-71
2023/04/30 05:55:55;;;;;;;6.13;5.22;;;;;;;11.87;100.00;95565.53;5055053;28;20049;-72
2023/04/30 05:58:20;;;;;;;5.95;4.85;;;;;;;11.69;100.00;95561.09;5053190;28;20025;-72
2023/04/30 06:00:49;;;;;;;5.40;5.00;;;;;;;11.61;100.00;95559.19;5053929;28;20025;-72
2023/04/30 06:03:15;;;;;;;6.93;4.88;;;;;;;11.59;100.00;95561.16;5057027;28;20024;-73
2023/04/30 06:05:40;;;;;;;5.00;4.63;;;;;;;11.55;100.00;95561.59;5052782;28;20025;-72
2023/04/30 06:08:05;;;;;;;4.75;4.45;;;;;;;11.51;100.00;95569.00;5052832;28;20104;-72
2023/04/30 06:10:31;;;;;;;6.38;5.25;;;;;;;11.49;100.00;95565.66;5055172;28;20020;-73
2023/04/30 06:12:56;;;;;;;5.43;4.93;;;;;;;11.49;100.00;95563.03;5049597;28;20029;-72
2023/04/30 06:15:22;;;;;;;5.43;4.90;;;;;;;11.51;100.00;95560.25;5051380;28;20044;-73
2023/04/30 06:17:47;;;;;;;4.95;4.55;;;;;;;11.43;100.00;95563.66;5053065;28;20033;-72
2023/04/30 06:20:13;;;;;;;5.75;5.30;;;;;;;11.37;100.00;95566.88;5053173;28;20397;-72
2023/04/30 06:22:40;;;;;;;6.40;4.85;;;;;;;11.31;100.00;95563.88;5051435;28;20479;-73
2023/04/30 06:25:06;;;;;;;7.10;5.50;;;;;;;11.30;100.00;95566.66;5054744;28;20078;-71
2023/04/30 06:27:31;;;;;;;6.30;5.75;;;;;;;11.29;100.00;95565.00;5047879;28;20040;-72
2023/04/30 06:29:57;;;;;;;9.18;5.95;;;;;;;11.25;100.00;95568.91;5049929;28;20033;-72
2023/04/30 06:32:22;;;;;;;5.85;5.35;;;;;;;11.23;100.00;95579.59;5051111;28;20103;-72
2023/04/30 06:34:48;;;;;;;5.82;5.35;;;;;;;11.28;100.00;95576.53;5052960;28;20029;-72
2023/04/30 06:37:13;;;;;;;6.88;5.60;;;;;;;11.33;100.00;95576.91;5056351;28;20075;-72
2023/04/30 06:39:38;;;;;;;5.78;5.47;;;;;;;11.33;100.00;95582.16;5054661;28;20048;-72
2023/04/30 06:42:04;;;;;;;6.10;5.60;;;;;;;11.31;100.00;95576.22;5055080;28;20043;-72
2023/04/30 06:44:30;;;;;;;6.15;5.75;;;;;;;11.36;100.00;95579.22;5071441;28;20501;-72
2023/04/30 06:46:55;;;;;;;6.05;5.55;;;;;;;11.34;100.00;95575.09;5046714;28;20485;-72
2023/04/30 06:49:21;;;;;;;8.25;7.55;;;;;;;11.49;100.00;95583.31;5054280;28;20032;-72
2023/04/30 06:51:46;;;;;;;6.45;5.80;;;;;;;11.48;100.00;95579.84;5053811;28;20025;-73
2023/04/30 06:54:13;;;;;;;9.73;6.65;;;;;;;11.56;100.00;95573.81;5053350;28;20025;-72
2023/04/30 06:56:38;;;;;;;6.72;6.18;;;;;;;11.59;100.00;95576.16;5054606;28;20519;-72
2023/04/30 06:59:04;;;;;;;5.97;5.57;;;;;;;11.69;100.00;95582.19;5051752;28;20478;-72
2023/04/30 07:01:29;;;;;;;5.72;5.22;;;;;;;11.78;100.00;95584.88;5051264;28;20436;-72
2023/04/30 07:03:55;;;;;;;5.57;5.18;;;;;;;11.81;100.00;95576.66;5054906;28;20140;-72
2023/04/30 07:06:20;;;;;;;6.35;5.85;;;;;;;11.78;100.00;95575.16;5054583;28;20028;-72
2023/04/30 07:08:46;;;;;;;6.13;5.60;;;;;;;11.84;100.00;95571.09;5055470;28;20067;-71
2023/04/30 07:11:12;;;;;;;5.65;5.30;;;;;;;11.85;100.00;95578.03;5054917;28;20020;-72
2023/04/30 07:13:37;;;;;;;6.32;5.82;;;;;;;11.89;100.00;95574.91;5054586;28;20040;-72
2023/04/30 07:16:04;;;;;;;6.22;5.45;;;;;;;11.94;100.00;95571.00;5056898;28;20436;-73
2023/04/30 07:18:30;;;;;;;6.25;5.38;;;;;;;11.96;100.00;95575.13;5053641;28;20025;-72
2023/04/30 07:20:55;;;;;;;5.45;5.07;;;;;;;11.91;100.00;95577.41;5052252;28;20043;-69
2023/04/30 07:23:21;;;;;;;5.70;5.30;;;;;;;11.91;100.00;95577.41;5046829;28;20116;-74
2023/04/30 07:25:46;;;;;;;6.82;5.32;;;;;;;11.88;100.00;95581.19;5046982;28;20032;-71
2023/04/30 07:28:12;;;;;;;7.70;5.85;;;;;;;11.83;100.00;95582.63;5052884;28;20082;-70
2023/04/30 07:30:37;;;;;;;5.65;5.15;;;;;;;11.83;100.00;95580.00;5052824;28;20024;-70
2023/04/30 07:33:03;;;;;;;5.70;5.20;;;;;;;11.82;100.00;95584.44;5063386;28;20041;-71
2023/04/30 07:35:28;;;;;;;5.13;4.72;;;;;;;11.82;100.00;95586.22;5049052;28;20029;-70
2023/04/30 07:37:54;;;;;;;6.03;5.57;;;;;;;11.83;100.00;95586.09;5049786;28;20124;-73
2023/04/30 07:40:19;;;;;;;5.45;5.03;;;;;;;11.85;100.00;95593.88;5068522;28;20124;-74
2023/04/30 07:42:45;;;;;;;5.35;4.90;;;;;;;11.89;100.00;95582.00;5049149;28;20036;-70
2023/04/30 07:45:11;;;;;;;5.65;5.13;;;;;;;11.91;100.00;95577.41;5067380;28;20036;-76
2023/04/30 07:47:37;;;;;;;6.32;4.68;;;;;;;11.93;100.00;95586.00;5051637;28;20017;-73
2023/04/30 07:50:02;;;;;;;5.18;4.88;;;;;;;11.93;100.00;95585.16;5050934;28;20031;-73
2023/04/30 07:52:27;;;;;;;5.88;5.10;;;;;;;11.94;100.00;95589.47;5052712;28;20036;-73
2023/04/30 07:54:53;;;;;;;5.30;4.90;;;;;;;11.95;100.00;95594.59;5053025;28;20028;-73
2023/04/30 07:57:18;;;;;;;5.15;4.72;;;;;;;12.02;100.00;95594.84;5053191;28;20056;-73
2023/04/30 07:59:44;;;;;;;5.38;4.97;;;;;;;11.98;100.00;95594.28;5052225;28;20049;-73
2023/04/30 08:02:09;;;;;;;5.07;4.68;;;;;;;12.00;100.00;95589.66;5052049;28;20016;-74
2023/04/30 08:04:35;;;;;;;6.93;4.70;;;;;;;11.98;100.00;95593.47;5051640;28;20029;-72
2023/04/30 08:07:01;;;;;;;5.18;4.78;;;;;;;12.01;100.00;95599.28;5049821;28;20398;-72
2023/04/30 08:09:26;;;;;;;5.43;4.80;;;;;;;12.07;100.00;95597.03;5054995;28;20100;-72
2023/04/30 08:11:52;;;;;;;6.57;5.40;;;;;;;12.10;100.00;95599.34;5050209;28;20059;-72
2023/04/30 08:14:18;;;;;;;5.97;5.40;;;;;;;12.26;100.00;95599.44;5051101;28;20055;-72
2023/04/30 08:16:43;;;;;;;7.22;6.15;;;;;;;12.27;100.00;95603.78;5053779;28;20326;-72
2023/04/30 08:19:08;;;;;;;6.43;6.00;;;;;;;12.29;100.00;95604.44;5052702;28;20187;-72
2023/04/30 08:21:34;;;;;;;7.20;5.90;;;;;;;12.36;100.00;95609.91;5052110;28;20404;-72
2023/04/30 08:24:00;;;;;;;5.93;5.40;;;;;;;12.44;100.00;95612.63;5052590;28;20049;-72
2023/04/30 08:26:25;;;;;;;8.02;7.32;;;;;;;12.41;100.00;95612.09;5053722;28;20033;-71
2023/04/30 08:28:51;;;;;;;7.47;6.78;;;;;;;12.43;100.00;95616.25;5053045;28;20039;-72
2023/04/30 08:31:17;;;;;;;5.65;5.15;;;;;;;12.45;100.00;95618.72;5054284;28;20115;-72
2023/04/30 08:33:42;;;;;;;6.40;5.85;;;;;;;12.43;100.00;95623.31;5051116;28;20032;-73
2023/04/30 08:36:07;;;;;;;5.43;5.03;;;;;;;12.44;100.00;95617.91;5052849;28;20028;-72
2023/04/30 08:38:33;;;;;;;7.82;7.18;;;;;;;12.38;100.00;95626.44;5051703;28;20044;-72
2023/04/30 08:41:11;;;;;;;6.68;6.03;;;;;;;12.39;100.00;95622.81;5054147;28;20100;-72
2023/04/30 08:43:37;;;;;;;6.57;6.18;;;;;;;12.38;100.00;95628.25;5052688;28;20393;-72
2023/04/30 08:46:05;;;;;;;6.35;5.85;;;;;;;12.45;100.00;95631.91;5052981;28;20083;-72
2023/04/30 08:48:32;;;;;;;5.50;5.00;;;;;;;12.42;100.00;95635.72;5055156;28;20040;-72
2023/04/30 08:51:02;;;;;;;5.75;5.25;;;;;;;12.36;100.00;95632.84;5053797;28;20029;-72
2023/04/30 08:53:29;;;;;;;5.55;5.15;;;;;;;12.39;100.00;95636.03;5050646;28;20025;-72
2023/04/30 08:55:55;;;;;;;5.75;5.35;;;;;;;12.41;100.00;95638.50;5053540;28;20032;-72
2023/04/30 08:58:20;;;;;;;5.82;5.32;;;;;;;12.45;100.00;95632.75;5069650;28;20017;-72
2023/04/30 09:00:45;;;;;;;5.70;5.30;;;;;;;12.46;100.00;95644.13;5053583;28;20024;-72
2023/04/30 09:03:11;;;;;;;6.55;5.82;;;;;;;12.51;100.00;95647.16;5050914;28;20429;-73
2023/04/30 09:05:37;;;;;;;7.35;5.20;;;;;;;12.45;100.00;95643.31;5051623;28;20107;-72
2023/04/30 09:08:03;;;;;;;5.50;5.03;;;;;;;12.43;100.00;95644.44;5053118;28;20096;-72
2023/04/30 09:10:31;;;;;;;5.70;5.20;;;;;;;12.41;100.00;95643.78;5051503;28;20588;-72
2023/04/30 09:13:05;;;;;;;6.05;5.47;;;;;;;12.42;100.00;95645.44;5051845;28;20075;-72
2023/04/30 09:15:32;;;;;;;5.90;5.40;;;;;;;12.36;100.00;95646.88;5052483;28;20021;-73
2023/04/30 09:18:11;;;;;;;5.93;5.35;;;;;;;12.45;100.00;95645.97;5054273;28;20025;-73
2023/04/30 09:20:37;;;;;;;6.32;5.72;;;;;;;12.46;100.00;95646.78;5049597;28;20400;-73
2023/04/30 09:23:10;;;;;;;5.55;5.20;;;;;;;12.55;100.00;95648.50;5051906;28;20051;-72
2023/04/30 09:25:40;;;;;;;5.60;5.20;;;;;;;12.51;100.00;95648.97;5069900;28;20282;-72
2023/04/30 09:28:10;;;;;;;5.13;4.82;;;;;;;12.48;100.00;95650.09;5049638;28;20029;-72
2023/04/30 09:30:36;;;;;;;6.20;5.70;;;;;;;12.51;100.00;95646.31;5051979;28;20029;-72
2023/04/30 09:33:02;;;;;;;6.07;5.57;;;;;;;12.51;100.00;95643.69;5052010;28;20070;-71
2023/04/30 09:35:35;;;;;;;8.82;8.02;;;;;;;12.36;100.00;95648.69;5051991;28;20049;-72
2023/04/30 09:38:02;;;;;;;7.30;6.60;;;;;;;12.40;100.00;95650.88;5050477;28;20493;-73
2023/04/30 09:40:39;;;;;;;8.13;7.53;;;;;;;12.33;100.00;95652.47;5048946;28;20049;-72
2023/04/30 09:43:05;;;;;;;7.93;7.32;;;;;;;12.29;100.00;95649.31;5050198;28;20032;-73
2023/04/30 09:45:46;;;;;;;7.30;6.60;;;;;;;12.36;100.00;95659.25;5052152;28;20025;-73
2023/04/30 09:48:14;;;;;;;6.65;6.15;;;;;;;12.27;100.00;95658.38;5049099;28;20028;-72
2023/04/30 09:50:40;;;;;;;7.10;6.50;;;;;;;12.38;100.00;95657.28;5048923;28;20021;-72
2023/04/30 09:53:09;;;;;;;6.20;5.45;;;;;;;12.37;100.00;95658.28;5051212;28;20032;-72
2023/04/30 09:55:36;;;;;;;7.10;6.28;;;;;;;12.34;100.00;95656.75;5053412;28;20024;-73
2023/04/30 09:58:06;;;;;;;6.40;5.82;;;;;;;12.33;100.00;95655.09;5051928;28;20033;-73
2023/04/30 10:00:35;;;;;;;5.82;5.40;;;;;;;12.31;100.00;95651.78;5050290;28;20037;-73
2023/04/30 10:03:11;;;;;;;7.00;6.40;;;;;;;12.35;100.00;95660.25;5052706;28;20080;-73
2023/04/30 10:05:43;;;;;;;6.20;5.68;;;;;;;12.31;100.00;95660.56;5047929;28;20478;-72
2023/04/30 10:08:30;;;;;;;6.57;5.93;;;;;;;12.29;100.00;95654.59;5052159;28;20025;-73
2023/04/30 10:11:04;;;;;;;7.30;6.40;;;;;;;12.31;100.00;95660.56;5053903;28;20401;-73
2023/04/30 10:13:40;;;;;;;6.72;6.22;;;;;;;12.35;100.00;95661.06;5051597;28;20036;-73
2023/04/30 10:16:20;;;;;;;6.30;5.70;;;;;;;12.37;100.00;95656.44;5065711;28;20446;-73
2023/04/30 10:18:50;;;;;;;7.78;5.90;;;;;;;12.36;100.00;95659.25;5049161;28;20117;-74
2023/04/30 10:21:17;;;;;;;5.93;5.47;;;;;;;12.35;100.00;95661.06;5051163;28;20024;-72
2023/04/30 10:23:43;;;;;;;5.75;5.30;;;;;;;12.35;100.00;95658.41;5055843;28;20025;-72
2023/04/30 10:26:13;;;;;;;6.63;5.90;;;;;;;12.41;100.00;95663.09;5049620;28;20067;-72
2023/04/30 10:28:39;;;;;;;6.22;5.72;;;;;;;12.36;100.00;95659.25;5052297;28;20032;-74
2023/04/30 10:31:06;;;;;;;7.10;6.60;;;;;;;12.37;100.00;95666.19;5054436;28;20043;-70
2023/04/30 10:33:48;;;;;;;7.72;7.03;;;;;;;12.41;100.00;95665.75;5058547;28;20025;-73
2023/04/30 10:36:20;;;;;;;10.27;8.38;;;;;;;12.45;100.00;95669.72;5052065;28;20048;-72
2023/04/30 10:38:46;;;;;;;7.95;6.90;;;;;;;12.45;100.00;95666.25;5053850;28;20066;-73
2023/04/30 10:41:11;;;;;;;7.20;6.60;;;;;;;12.42;100.00;95669.19;5050350;28;20116;-71
2023/04/30 10:43:37;;;;;;;5.95;5.45;;;;;;;12.44;100.00;95660.16;5055905;28;20118;-75
2023/04/30 10:46:03;;;;;;;7.57;6.78;;;;;;;12.36;100.00;95659.25;5053666;28;20021;-71
2023/04/30 10:48:34;;;;;;;7.40;6.72;;;;;;;12.37;100.00;95658.28;5053266;28;20071;-73
2023/04/30 10:50:59;;;;;;;8.70;7.25;;;;;;;12.31;100.00;95663.19;5056191;28;20112;-71
2023/04/30 10:53:29;;;;;;;7.50;6.80;;;;;;;12.30;100.00;95666.81;5050902;28;20109;-70
2023/04/30 10:55:59;;;;;;;7.38;6.78;;;;;;;12.27;100.00;95663.63;5052034;28;20028;-70
2023/04/30 10:58:31;;;;;;;8.57;7.25;;;;;;;12.21;100.00;95662.44;5050558;28;20044;-69
2023/04/30 11:01:16;;;;;;;6.85;6.35;;;;;;;12.20;100.00;95660.78;5049148;28;20116;-70
2023/04/30 11:04:02;;;;;;;8.52;7.82;;;;;;;12.18;100.00;95662.75;5051076;28;20036;-69
2023/04/30 11:06:48;;;;;;;7.22;6.53;;;;;;;12.20;100.00;95660.78;5054376;28;20525;-70
2023/04/30 11:09:15;;;;;;;7.68;7.07;;;;;;;12.32;100.00;95661.38;5050392;28;20021;-72
2023/04/30 11:11:46;;;;;;;8.45;7.63;;;;;;;12.24;100.00;95659.47;5050970;28;20028;-70
2023/04/30 11:14:12;;;;;;;8.43;7.72;;;;;;;12.23;100.00;95660.47;5054665;28;20100;-70
2023/04/30 11:16:37;;;;;;;8.25;7.65;;;;;;;12.32;100.00;95661.38;5053338;28;20110;-69
2023/04/30 11:19:10;;;;;;;8.30;7.60;;;;;;;12.35;100.00;95657.59;5054766;28;20021;-71
2023/04/30 11:22:04;;;;;;;9.15;8.43;;;;;;;12.37;100.00;95661.72;5052067;28;20055;-70
2023/04/30 11:24:57;;;;;;;8.00;7.35;;;;;;;12.35;100.00;95663.69;5050622;28;20040;-71